Latest Weather Observations for Hindmarsh Island

IDS60801

Issued at 1:02 pm CST Saturday 18 April 2015 (issued every 30 minutes, with the page automatically refreshed every 10 minutes)

About weather observations | Map of weather stations | Latest weather observations for SA | Other Formats
Station Details ID: 023894 Name: HINDMARSH ISLAND AWS Lat: -35.52 Lon: 138.82 Height: 11.0 m
Data from the previous 72 hours. | See also: Recent months at Hindmarsh Island
Date/Time
CST
Temp
°C
App
Temp
°C
Dew
Point
Rel
Hum
%
Delta-T
°C
Wind Press
QNH
hPa
Press
MSL
hPa
Rain
since 9 am
mm
Dir
 
Spd
km/h
Gust
km/h
Spd
kts
Gust
kts
18/01:00pm 19.4 15.1 13.3 68 3.5 WNW 28 39 15 21 1015.1 - 0.0
18/12:31pm 18.2 13.6 12.4 69 3.2 WNW 28 48 15 26 1015.6 - 0.0
18/12:30pm 18.5 14.4 12.7 69 3.2 WNW 26 41 14 22 1015.7 - 0.0
18/12:00pm 17.7 12.9 13.0 74 2.6 NW 30 43 16 23 1016.2 1016.1 0.0
18/11:30am 18.0 12.1 12.5 70 3.1 WNW 35 46 19 25 1016.3 - 0.0
18/11:00am 18.3 12.9 12.3 68 3.3 WNW 32 46 17 25 1016.3 - 0.0
18/10:30am 17.8 12.3 11.8 68 3.3 WNW 32 43 17 23 1016.4 - 0.0
18/10:00am 17.6 12.9 12.1 70 3.0 WNW 28 41 15 22 1016.6 - 0.0
18/09:30am 16.6 11.8 11.7 73 2.7 NW 28 46 15 25 1016.6 - 0.0
18/09:28am 16.6 11.7 11.3 71 2.9 NW 28 46 15 25 1016.6 - 0.0
18/09:00am 16.4 11.4 10.9 70 2.9 NW 28 39 15 21 1016.9 1016.8 3.6
18/08:30am 15.5 12.0 10.9 74 2.4 NW 20 30 11 16 1016.8 - 3.6
18/08:00am 14.9 11.3 10.7 76 2.2 NNW 20 28 11 15 1016.4 - 3.6
18/07:30am 14.0 10.3 10.2 78 2.0 NW 20 28 11 15 1016.0 - 3.6
18/07:00am 12.5 11.0 9.1 80 1.7 NW 7 13 4 7 1016.0 - 3.6
18/06:30am 12.4 10.5 9.1 80 1.7 NW 9 11 5 6 1016.0 - 3.6
18/06:00am 12.1 9.2 9.5 84 1.3 NW 15 17 8 9 1015.9 1015.7 3.6
18/05:30am 12.4 10.4 10.0 85 1.2 NW 11 13 6 7 1015.6 - 3.6
18/05:00am 13.1 10.8 10.5 84 1.4 WNW 13 19 7 10 1015.5 - 3.6
18/04:30am 13.5 11.0 10.9 84 1.4 WNW 15 20 8 11 1015.4 - 3.6
18/04:00am 14.1 12.4 11.3 83 1.5 W 11 15 6 8 1015.2 - 3.6
18/03:30am 14.3 12.7 11.5 83 1.5 W 11 15 6 8 1015.2 - 3.6
18/03:00am 14.3 13.0 11.3 82 1.6 WNW 9 13 5 7 1015.4 1015.3 3.6
18/02:30am 14.2 12.9 11.4 83 1.5 WNW 9 13 5 7 1015.6 - 3.6
18/02:00am 13.9 12.2 11.1 83 1.5 NW 11 13 6 7 1015.8 - 3.6
18/01:30am 13.8 12.5 11.1 84 1.4 WNW 9 13 5 7 1016.0 - 3.6
18/01:00am 13.7 12.1 11.4 86 1.2 NW 11 15 6 8 1016.2 - 3.6
18/12:30am 13.4 12.1 11.1 86 1.2 NW 9 15 5 8 1016.3 - 3.6
18/12:00am 14.1 11.6 10.9 81 1.7 SW 15 19 8 10 1016.4 1016.3 3.6
 
Date/Time
CST
Temp
°C
App
Temp
°C
Dew
Point
Rel
Hum
%
Delta-T
°C
Wind Press
QNH
hPa
Press
MSL
hPa
Rain
since 9 am
mm
Dir
 
Spd
km/h
Gust
km/h
Spd
kts
Gust
kts
17/11:30pm 13.8 10.4 10.6 81 1.7 SW 19 22 10 12 1016.6 - 3.6
17/11:00pm 14.0 11.6 11.5 85 1.3 SW 15 20 8 11 1016.7 - 3.6
17/10:30pm 13.9 11.6 11.6 86 1.2 SW 15 19 8 10 1017.0 - 3.6
17/10:00pm 14.0 11.4 12.0 88 1.1 SSW 17 20 9 11 1017.1 - 3.6
17/09:30pm 13.9 11.6 11.9 88 1.1 SSW 15 17 8 9 1017.1 - 3.6
17/09:00pm 13.9 12.0 11.9 88 1.1 SSW 13 17 7 9 1016.9 1016.8 3.6
17/08:30pm 13.8 12.2 11.7 87 1.1 S 11 13 6 7 1016.8 - 3.6
17/08:00pm 13.8 11.9 11.8 88 1.1 SSW 13 15 7 8 1017.1 - 3.6
17/07:30pm 13.5 11.6 11.7 89 1.0 SSW 13 17 7 9 1017.1 - 3.6
17/07:00pm 13.7 11.8 11.9 89 1.0 S 13 17 7 9 1016.8 - 3.6
17/06:30pm 13.8 12.7 12.0 89 1.0 S 9 13 5 7 1016.5 - 3.6
17/06:00pm 13.5 13.3 11.7 89 1.0 ENE 4 7 2 4 1016.2 1016.0 3.6
17/05:30pm 13.5 14.1 11.9 90 0.9 CALM 0 4 0 2 1016.1 - 3.6
17/05:00pm 13.7 13.0 12.1 90 0.9 NNE 7 9 4 5 1015.9 - 3.6
17/04:30pm 13.6 12.5 12.0 90 0.9 ENE 9 11 5 6 1016.0 - 3.4
17/04:00pm 13.6 11.4 12.0 90 0.9 NE 15 20 8 11 1015.9 - 3.0
17/03:30pm 13.3 11.7 11.7 90 0.9 ENE 11 13 6 7 1016.1 - 3.0
17/03:00pm 13.2 10.5 11.6 90 0.8 ESE 17 20 9 11 1016.7 1016.6 2.6
17/02:30pm 13.3 10.2 11.5 89 1.0 SE 19 24 10 13 1016.8 - 2.0
17/02:00pm 13.2 9.1 11.4 89 1.0 SE 24 26 13 14 1017.2 - 2.0
17/01:30pm 13.2 9.8 11.3 88 1.0 ESE 20 24 11 13 1017.8 - 1.2
17/01:00pm 13.5 10.0 11.0 85 1.3 ESE 20 24 11 13 1018.0 - 0.2
17/12:30pm 13.9 10.1 11.2 84 1.4 SE 22 28 12 15 1018.6 - 0.2
17/12:00pm 13.7 9.9 11.0 84 1.4 SE 22 28 12 15 1019.2 1019.1 0.2
17/11:30am 13.7 9.2 11.4 86 1.2 SE 26 32 14 17 1019.7 - 0.2
17/11:00am 13.6 10.0 11.7 88 1.0 SE 22 26 12 14 1020.3 - 0.2
17/10:30am 13.1 9.9 11.2 88 1.0 SE 19 20 10 11 1020.8 - 0.2
17/10:00am 12.9 11.2 11.1 89 0.9 ESE 11 15 6 8 1021.5 - 0.0
17/09:30am 13.1 11.1 11.5 90 0.8 E 13 15 7 8 1021.8 - 0.0
17/09:00am 12.9 11.2 11.3 90 0.8 E 11 15 6 8 1021.7 1021.6 11.0
17/08:30am 12.7 10.9 10.9 89 0.9 E 11 15 6 8 1021.6 - 10.8
17/08:00am 12.8 11.1 11.2 90 0.8 E 11 13 6 7 1021.9 - 10.8
17/07:30am 12.7 11.0 11.1 90 0.8 E 11 15 6 8 1021.6 - 10.8
17/07:00am 12.6 10.4 10.8 89 0.9 E 13 17 7 9 1021.2 - 10.8
17/06:30am 12.9 9.4 11.0 88 1.0 SE 20 26 11 14 1020.7 - 10.6
17/06:00am 12.4 9.4 10.8 90 0.8 ESE 17 19 9 10 1021.4 1021.3 10.6
17/05:30am 12.4 9.9 11.0 91 0.7 E 15 20 8 11 1021.8 - 10.6
17/05:00am 12.6 11.3 11.2 91 0.7 E 9 11 5 6 1022.0 - 10.0
17/04:30am 12.6 10.9 11.2 91 0.7 E 11 15 6 8 1021.7 - 9.6
17/04:00am 12.6 11.3 11.2 91 0.7 E 9 11 5 6 1021.8 - 9.0
17/03:30am 12.7 11.4 11.1 90 0.8 E 9 11 5 6 1022.0 - 8.2
17/03:00am 12.7 11.7 11.1 90 0.8 E 7 9 4 5 1022.2 1022.1 7.6
17/02:30am 12.6 11.6 11.0 90 0.8 E 7 9 4 5 1022.3 - 7.4
17/02:00am 12.6 11.2 11.0 90 0.8 NNE 9 13 5 7 1022.6 - 7.2
17/01:30am 12.5 11.1 10.9 90 0.8 E 9 11 5 6 1023.2 - 6.8
17/01:00am 12.6 10.8 10.8 89 0.9 E 11 13 6 7 1023.4 - 6.4
17/12:30am 12.7 10.9 10.9 89 0.9 ENE 11 13 6 7 1023.8 - 6.2
17/12:00am 13.0 10.9 11.2 89 0.9 E 13 17 7 9 1024.1 1024.0 5.8
 
Date/Time
CST
Temp
°C
App
Temp
°C
Dew
Point
Rel
Hum
%
Delta-T
°C
Wind Press
QNH
hPa
Press
MSL
hPa
Rain
since 9 am
mm
Dir
 
Spd
km/h
Gust
km/h
Spd
kts
Gust
kts
16/11:30pm 13.2 10.8 11.4 89 1.0 E 15 19 8 10 1024.3 - 5.6
16/11:00pm 13.2 10.8 11.4 89 1.0 E 15 17 8 9 1024.7 - 5.4
16/10:30pm 13.2 11.2 11.4 89 1.0 E 13 15 7 8 1025.0 - 5.0
16/10:00pm 13.3 11.3 11.5 89 1.0 ENE 13 15 7 8 1025.3 - 4.8
16/09:30pm 13.3 11.3 11.5 89 1.0 E 13 17 7 9 1025.4 - 4.6
16/09:00pm 13.4 11.0 11.5 88 1.0 E 15 17 8 9 1025.8 1025.7 4.4
16/08:30pm 13.6 11.7 11.7 88 1.0 E 13 15 7 8 1025.9 - 4.0
16/08:00pm 13.8 11.9 11.7 87 1.1 E 13 15 7 8 1025.8 - 3.6
16/07:30pm 14.5 10.4 11.6 83 1.6 ESE 24 28 13 15 1025.5 - 3.0
16/07:00pm 14.4 10.3 11.6 83 1.5 SE 24 28 13 15 1025.2 - 2.8
16/06:30pm 14.4 10.8 11.7 84 1.4 SE 22 26 12 14 1024.8 - 2.8
16/06:00pm 14.6 11.5 12.1 85 1.3 SE 20 22 11 12 1024.8 1024.7 2.6
16/05:30pm 14.9 13.3 12.8 87 1.2 ESE 13 15 7 8 1024.6 - 2.6
16/05:00pm 14.9 13.2 12.6 86 1.3 E 13 15 7 8 1024.3 - 2.2
16/04:30pm 15.1 13.5 12.8 86 1.3 E 13 15 7 8 1024.3 - 2.2
16/04:00pm 15.2 13.6 12.9 86 1.3 ESE 13 17 7 9 1024.5 - 2.2
16/03:30pm 15.2 14.0 12.7 85 1.4 NNE 11 13 6 7 1025.1 - 2.2
16/03:00pm 15.2 14.3 12.7 85 1.4 ENE 9 11 5 6 1025.7 1025.6 2.2
16/02:30pm 15.2 13.6 12.9 86 1.3 E 13 17 7 9 1025.6 - 2.2
16/02:00pm 15.0 12.0 12.7 86 1.3 SE 20 24 11 13 1025.3 - 2.2
16/01:30pm 15.1 11.5 13.0 87 1.2 SE 24 26 13 14 1025.2 - 1.8
16/01:00pm 15.2 12.0 13.2 88 1.1 SE 22 26 12 14 1025.2 - 1.8
16/12:30pm 15.7 13.6 13.5 87 1.2 E 17 22 9 12 1025.3 - 1.6
16/12:00pm 15.6 14.3 13.6 88 1.1 E 13 15 7 8 1026.2 1026.1 1.4
16/11:30am 15.3 13.9 13.3 88 1.1 E 13 17 7 9 1026.6 - 0.8
16/11:00am 15.6 13.7 13.1 85 1.4 E 15 17 8 9 1026.7 - 0.2
16/10:30am 15.5 14.0 13.2 86 1.3 E 13 17 7 9 1026.8 - 0.2
16/10:00am 15.7 13.6 13.5 87 1.2 E 17 20 9 11 1027.0 - 0.2
16/09:30am 15.8 13.3 13.5 86 1.3 SE 19 20 10 11 1027.2 - 0.2
16/09:00am 16.5 15.9 13.6 83 1.6 ENE 9 15 5 8 1027.4 1027.3 0.0
16/08:30am 16.4 15.8 13.5 83 1.6 ENE 9 13 5 7 1027.1 - 0.0
16/08:00am 16.1 15.1 13.4 84 1.5 ENE 11 13 6 7 1027.2 - 0.0
16/07:30am 15.9 15.2 13.2 84 1.5 E 9 13 5 7 1026.7 - 0.0
16/07:00am 15.8 15.0 12.9 83 1.6 ENE 9 11 5 6 1026.1 - 0.0
16/06:30am 16.2 14.0 13.3 83 1.6 SE 17 20 9 11 1025.6 - 0.0
16/06:00am 16.1 12.5 13.2 83 1.6 SE 24 26 13 14 1024.2 1024.0 0.0
16/05:30am 16.1 13.4 13.4 84 1.5 SE 20 24 11 13 1024.5 - 0.0
16/05:00am 16.4 14.0 13.9 85 1.4 SE 19 24 10 13 1024.2 - 0.0
16/04:30am 16.3 13.4 14.0 86 1.3 SSE 22 28 12 15 1023.9 - 0.0
16/04:00am 16.5 14.5 13.8 84 1.5 S 17 20 9 11 1023.5 - 0.0
16/03:30am 16.3 15.0 13.6 84 1.5 S 13 15 7 8 1023.9 - 0.0
16/03:00am 16.4 14.0 13.7 84 1.5 S 19 20 10 11 1023.8 1023.7 0.0
16/02:30am 16.4 14.0 13.7 84 1.5 S 19 24 10 13 1024.2 - 0.0
16/02:00am 16.3 14.3 13.8 85 1.4 S 17 22 9 12 1024.5 - 0.0
16/01:30am 16.3 14.3 13.8 85 1.4 S 17 19 9 10 1024.2 - 0.0
16/01:00am 16.3 14.8 14.1 87 1.2 S 15 17 8 9 1024.0 - 0.0
16/12:30am 16.1 14.9 13.9 87 1.2 S 13 13 7 7 1023.6 - 0.0
16/12:00am 16.2 15.4 14.0 87 1.2 S 11 13 6 7 1023.6 1023.5 0.0
 
Date/Time
CST
Temp
°C
App
Temp
°C
Dew
Point
Rel
Hum
%
Delta-T
°C
Wind Press
QNH
hPa
Press
MSL
hPa
Rain
since 9 am
mm
Dir
 
Spd
km/h
Gust
km/h
Spd
kts
Gust
kts
15/11:30pm 16.2 15.4 14.0 87 1.2 S 11 13 6 7 1023.8 - 0.0
15/11:00pm 16.3 15.1 14.1 87 1.2 S 13 15 7 8 1023.9 - 0.0
15/10:30pm 16.4 15.2 14.1 86 1.3 S 13 15 7 8 1024.4 - 0.0
15/10:00pm 16.5 14.6 14.2 86 1.3 S 17 19 9 10 1023.9 - 0.0
15/09:30pm 16.3 14.8 14.1 87 1.2 SSW 15 15 8 8 1023.9 - 0.0
15/09:00pm 16.5 15.8 14.2 86 1.3 S 11 13 6 7 1023.9 1023.7 0.0
15/08:30pm 16.7 15.2 14.3 86 1.4 SSW 15 17 8 9 1023.8 - 0.0
15/08:00pm 16.5 15.6 13.6 83 1.6 SW 11 13 6 7 1023.8 - 0.0
15/07:30pm 16.9 15.3 13.8 82 1.8 SW 15 17 8 9 1023.5 - 0.0
15/07:00pm 17.0 14.6 13.7 81 1.9 SSW 19 22 10 12 1023.0 - 0.0
15/06:30pm 17.1 15.1 14.0 82 1.8 SW 17 22 9 12 1022.7 - 0.0
15/06:00pm 17.4 16.7 14.3 82 1.8 WSW 11 15 6 8 1022.3 1022.2 0.0
15/05:30pm 17.7 16.3 14.4 81 1.9 SW 15 17 8 9 1021.9 - 0.0
15/05:00pm 18.6 17.6 14.7 78 2.3 SSW 13 15 7 8 1021.4 - 0.0
15/04:30pm 18.6 16.6 14.9 79 2.2 SSW 19 24 10 13 1021.1 - 0.0
15/04:00pm 19.2 16.5 14.7 75 2.6 SW 22 30 12 16 1020.9 - 0.0
15/03:30pm 19.8 17.2 15.0 74 2.8 SSW 22 28 12 15 1020.6 - 0.0
15/03:00pm 19.8 16.8 14.8 73 2.9 SSW 24 32 13 17 1020.4 1020.3 0.0
15/02:30pm 20.3 16.6 14.9 71 3.2 SSW 28 33 15 18 1020.2 - 0.0
15/02:00pm 19.9 16.9 14.7 72 3.0 SSW 24 30 13 16 1019.8 - 0.0
15/01:30pm 20.8 18.0 15.4 71 3.2 SSW 24 30 13 16 1019.4 - 0.0

Other Formats:

Comma delimited format used in spreadsheet applications
http://www.bom.gov.au/fwo/IDS60801/IDS60801.94677.axf

JavaScript Object Notation format (JSON) in row-major order
http://www.bom.gov.au/fwo/IDS60801/IDS60801.94677.json